createdAt,value
2018-01-13T00:00:39.590Z,99015.45
2018-01-13T00:03:07.935Z,99019.35
2018-01-13T00:05:36.277Z,99017.41
2018-01-13T00:08:04.620Z,99016.32
2018-01-13T00:10:32.958Z,99021.48
2018-01-13T00:13:01.293Z,99013.77
2018-01-13T00:15:29.640Z,99009.41
2018-01-13T00:17:57.980Z,99010.28
2018-01-13T00:20:27.820Z,99014.80
2018-01-13T00:22:56.157Z,99009.33
2018-01-13T00:25:24.512Z,99008.06
2018-01-13T00:27:53.030Z,99001.13
2018-01-13T00:30:21.365Z,99008.68
2018-01-13T00:32:49.707Z,99014.61
2018-01-13T00:35:18.793Z,99012.81
2018-01-13T00:37:48.300Z,99005.95
2018-01-13T00:40:17.010Z,99011.65
2018-01-13T00:42:45.378Z,99011.73
2018-01-13T00:45:13.723Z,99012.41
2018-01-13T00:47:42.054Z,99012.22
2018-01-13T00:50:10.380Z,99011.28
2018-01-13T00:52:38.708Z,99009.34
2018-01-13T00:55:07.031Z,99008.01
2018-01-13T00:57:35.373Z,99012.98
2018-01-13T01:00:04.563Z,99004.86
2018-01-13T01:02:32.887Z,99009.17
2018-01-13T01:05:01.270Z,99013.27
2018-01-13T01:07:29.604Z,99016.05
2018-01-13T01:09:57.940Z,99019.68
2018-01-13T01:12:26.280Z,99009.83
2018-01-13T01:14:54.616Z,99017.59
2018-01-13T01:17:22.952Z,99015.09
2018-01-13T01:19:51.298Z,98975.95
2018-01-13T01:22:19.645Z,99016.58
2018-01-13T01:24:48.757Z,99016.23
2018-01-13T01:27:17.089Z,99022.67
2018-01-13T01:29:45.432Z,99020.98
2018-01-13T01:32:13.776Z,99024.66
2018-01-13T01:34:42.154Z,99022.84
2018-01-13T01:37:10.498Z,99015.65
2018-01-13T01:39:38.813Z,99013.87
2018-01-13T01:42:07.156Z,99019.91
2018-01-13T01:44:35.528Z,99019.57
2018-01-13T01:47:03.862Z,99017.77
2018-01-13T01:49:32.201Z,99017.83
2018-01-13T01:52:00.553Z,99015.47
2018-01-13T01:54:30.190Z,99013.62
2018-01-13T01:56:58.523Z,99012.57
2018-01-13T01:59:26.854Z,99007.29
2018-01-13T02:01:55.964Z,99011.70
2018-01-13T02:04:24.290Z,99010.27
2018-01-13T02:06:52.623Z,99009.66
2018-01-13T02:09:20.972Z,99005.54
2018-01-13T02:11:50.076Z,99013.63
2018-01-13T02:14:18.425Z,99011.35
2018-01-13T02:16:46.746Z,99014.32
2018-01-13T02:19:15.448Z,99012.99
2018-01-13T02:21:43.767Z,99006.16
2018-01-13T02:24:12.102Z,99006.33
2018-01-13T02:26:40.824Z,99000.09
2018-01-13T02:29:09.150Z,99009.66
2018-01-13T02:31:37.482Z,99007.31
2018-01-13T02:34:06.079Z,99009.03
2018-01-13T02:36:34.420Z,99007.55
2018-01-13T02:39:02.745Z,99009.31
2018-01-13T02:41:31.860Z,99009.80
2018-01-13T02:44:00.195Z,99004.70
2018-01-13T02:46:28.533Z,99011.09
2018-01-13T02:48:56.885Z,99003.51
2018-01-13T02:51:25.989Z,99008.70
2018-01-13T02:53:54.313Z,99010.26
2018-01-13T02:56:22.633Z,99004.92
2018-01-13T02:58:51.703Z,99010.16
2018-01-13T03:01:20.013Z,99004.22
2018-01-13T03:03:48.333Z,99001.28
2018-01-13T03:06:16.679Z,99001.56
2018-01-13T03:08:45.024Z,99000.63
2018-01-13T03:11:14.128Z,98997.77
2018-01-13T03:13:43.221Z,98996.41
2018-01-13T03:16:11.568Z,98994.88
2018-01-13T03:18:40.920Z,98989.44
2018-01-13T03:21:09.240Z,98987.05
2018-01-13T03:23:37.572Z,98981.11
2018-01-13T03:26:05.915Z,98982.91
2018-01-13T03:28:35.385Z,98973.57
2018-01-13T03:31:03.735Z,98978.14
2018-01-13T03:33:32.070Z,98972.97
2018-01-13T03:36:00.399Z,98976.86
2018-01-13T03:38:34.526Z,98982.73
2018-01-13T03:41:02.868Z,98983.94
2018-01-13T03:43:31.200Z,98982.81
2018-01-13T03:45:59.544Z,98978.84
2018-01-13T03:48:27.892Z,98973.84
2018-01-13T03:50:56.242Z,98973.34
2018-01-13T03:53:24.584Z,98977.22
2018-01-13T03:55:52.919Z,98973.77
2018-01-13T03:58:22.026Z,98975.33
2018-01-13T04:00:50.363Z,98974.91
2018-01-13T04:03:18.707Z,98973.09
2018-01-13T04:05:47.034Z,98972.23
2018-01-13T04:08:15.349Z,98966.98
2018-01-13T04:10:43.738Z,98965.84
2018-01-13T04:13:12.086Z,98968.55
2018-01-13T04:15:40.428Z,98966.88
2018-01-13T04:18:08.794Z,98969.09
2018-01-13T04:20:37.118Z,98969.77
2018-01-13T04:23:05.438Z,98965.67
2018-01-13T04:25:33.804Z,98971.48
2018-01-13T04:28:02.145Z,98975.34
2018-01-13T04:30:31.249Z,98969.27
2018-01-13T04:32:59.592Z,98973.67
2018-01-13T04:35:27.933Z,98967.05
2018-01-13T04:37:56.276Z,98964.08
2018-01-13T04:40:25.375Z,98961.67
2018-01-13T04:42:53.716Z,98961.44
2018-01-13T04:45:22.061Z,98959.48
2018-01-13T04:47:50.381Z,98960.58
2018-01-13T04:50:18.730Z,98954.28
2018-01-13T04:52:47.846Z,98956.56
2018-01-13T04:55:16.179Z,98956.08
2018-01-13T04:57:44.518Z,98952.83
2018-01-13T05:00:12.849Z,98954.17
2018-01-13T05:02:41.167Z,98963.98
2018-01-13T05:05:09.504Z,98953.25
2018-01-13T05:07:38.039Z,98955.89
2018-01-13T05:10:06.384Z,98959.73
2018-01-13T05:12:35.523Z,98960.96
2018-01-13T05:15:04.610Z,98953.98
2018-01-13T05:17:32.943Z,98961.92
2018-01-13T05:20:01.272Z,98961.69
2018-01-13T05:22:29.612Z,98965.16
2018-01-13T05:24:57.961Z,98959.84
2018-01-13T05:27:26.296Z,98962.22
2018-01-13T05:29:55.024Z,98963.02
2018-01-13T05:32:23.366Z,98967.11
2018-01-13T05:34:52.473Z,98965.76
2018-01-13T05:37:20.799Z,98968.42
2018-01-13T05:39:49.128Z,98960.06
2018-01-13T05:42:18.225Z,98961.62
2018-01-13T05:44:46.555Z,98968.25
2018-01-13T05:47:14.879Z,98975.09
2018-01-13T05:49:43.975Z,98975.16
2018-01-13T05:52:12.864Z,98972.20
2018-01-13T05:54:41.988Z,98973.91
2018-01-13T05:57:10.324Z,98975.03
2018-01-13T05:59:39.433Z,98975.12
2018-01-13T06:02:07.755Z,98980.45
2018-01-13T06:04:36.105Z,98981.54
2018-01-13T06:07:04.437Z,98978.36
2018-01-13T06:09:32.779Z,98983.45
2018-01-13T06:12:01.121Z,98983.19
2018-01-13T06:14:30.228Z,98982.52
2018-01-13T06:16:58.616Z,98980.96
2018-01-13T06:19:26.935Z,98981.34
2018-01-13T06:21:55.248Z,98980.30
2018-01-13T06:24:23.584Z,98984.63
2018-01-13T06:26:51.921Z,98982.23
2018-01-13T06:29:20.273Z,98981.38
2018-01-13T06:31:48.607Z,98987.92
2018-01-13T06:34:17.708Z,98980.91
2018-01-13T06:36:47.221Z,98973.84
2018-01-13T06:39:15.621Z,98973.26
2018-01-13T06:41:45.498Z,98973.73
2018-01-13T06:44:13.825Z,98975.45
2018-01-13T06:46:43.414Z,98975.77
2018-01-13T06:49:11.742Z,98971.95
2018-01-13T06:51:40.067Z,98975.88
2018-01-13T06:54:08.397Z,98977.50
2018-01-13T06:56:36.763Z,98976.36
2018-01-13T06:59:05.103Z,98974.74
2018-01-13T07:01:33.431Z,98972.71
2018-01-13T07:04:01.779Z,98984.52
2018-01-13T07:06:30.861Z,98975.44
2018-01-13T07:08:59.190Z,98976.48
2018-01-13T07:11:27.749Z,98979.59
2018-01-13T07:13:56.082Z,98986.25
2018-01-13T07:16:24.420Z,98983.71
2018-01-13T07:18:52.760Z,98985.70
2018-01-13T07:21:21.080Z,98983.77
2018-01-13T07:23:49.410Z,98987.26
2018-01-13T07:26:19.522Z,98980.48
2018-01-13T07:28:47.843Z,98980.86
2018-01-13T07:31:16.178Z,98987.61
2018-01-13T07:33:44.497Z,98995.48
2018-01-13T07:36:12.841Z,98990.47
2018-01-13T07:38:42.740Z,98986.98
2018-01-13T07:41:11.091Z,98995.40
2018-01-13T07:43:39.431Z,98992.12
2018-01-13T07:46:07.768Z,98993.10
2018-01-13T07:48:36.101Z,98989.97
2018-01-13T07:51:04.441Z,98988.04
2018-01-13T07:53:32.739Z,98989.89
2018-01-13T07:56:01.041Z,98983.54
2018-01-13T07:58:29.348Z,98983.88
2018-01-13T08:00:57.670Z,98991.67
2018-01-13T08:03:26.006Z,98988.45
2018-01-13T08:05:54.352Z,98990.47
2018-01-13T08:08:22.677Z,98999.67
2018-01-13T08:10:51.017Z,98993.16
2018-01-13T08:13:19.917Z,98986.03
2018-01-13T08:15:48.246Z,98989.55
2018-01-13T08:18:16.583Z,98990.80
2018-01-13T08:20:44.910Z,98990.13
2018-01-13T08:23:13.223Z,98991.06
2018-01-13T08:25:41.574Z,98989.48
2018-01-13T08:28:09.902Z,98988.70
2018-01-13T08:30:38.241Z,98990.14
2018-01-13T08:33:06.558Z,98989.73
2018-01-13T08:35:35.950Z,98984.66
2018-01-13T08:38:04.656Z,98990.42
2018-01-13T08:40:33.006Z,98987.08
2018-01-13T08:43:01.330Z,98981.89
2018-01-13T08:45:29.678Z,98983.88
2018-01-13T08:47:58.002Z,98986.94
2018-01-13T08:50:26.348Z,98988.21
2018-01-13T08:52:55.434Z,98985.82
2018-01-13T08:55:23.762Z,98991.52
2018-01-13T08:57:52.087Z,98985.63
2018-01-13T09:00:20.428Z,98986.66
2018-01-13T09:02:48.761Z,98983.15
2018-01-13T09:05:17.854Z,98992.16
2018-01-13T09:07:46.183Z,98982.15
2018-01-13T09:10:14.742Z,98989.53
2018-01-13T09:12:43.095Z,98997.89
2018-01-13T09:15:11.428Z,98993.88
2018-01-13T09:17:39.812Z,98998.81
2018-01-13T09:20:08.125Z,98994.31
2018-01-13T09:22:36.472Z,98996.00
2018-01-13T09:25:05.626Z,98993.23
2018-01-13T09:27:33.954Z,98990.98
2018-01-13T09:30:02.292Z,98991.00
2018-01-13T09:32:30.631Z,99001.61
2018-01-13T09:34:58.998Z,99000.42
2018-01-13T09:37:27.324Z,98989.42
2018-01-13T09:39:55.669Z,98993.75
2018-01-13T09:42:24.753Z,98991.14
2018-01-13T09:44:53.077Z,98998.41
2018-01-13T09:47:21.390Z,98996.98
2018-01-13T09:49:51.481Z,98997.26
2018-01-13T09:52:19.829Z,99000.01
2018-01-13T09:54:48.153Z,98996.64
2018-01-13T09:57:16.473Z,98997.44
2018-01-13T09:59:45.868Z,98992.87
2018-01-13T10:02:14.957Z,98991.41
2018-01-13T10:04:43.303Z,98994.84
2018-01-13T10:07:11.635Z,98993.36
2018-01-13T10:09:39.954Z,98997.48
2018-01-13T10:12:08.266Z,98992.20
2018-01-13T10:14:37.530Z,98987.41
2018-01-13T10:17:05.841Z,98990.32
2018-01-13T10:19:34.168Z,98984.05
2018-01-13T10:22:02.511Z,98988.21
2018-01-13T10:24:30.832Z,98982.50
2018-01-13T10:26:59.190Z,98984.47
2018-01-13T10:29:27.533Z,98989.18
2018-01-13T10:31:56.666Z,98981.55
2018-01-13T10:34:25.040Z,98984.53
2018-01-13T10:36:53.384Z,98985.94
2018-01-13T10:39:21.728Z,98982.03
2018-01-13T10:41:51.036Z,98981.64
2018-01-13T10:44:19.389Z,98974.91
2018-01-13T10:46:48.008Z,98979.59
2018-01-13T10:49:16.336Z,98974.27
2018-01-13T10:51:44.677Z,98975.33
2018-01-13T10:54:14.176Z,98974.31
2018-01-13T10:56:43.341Z,98970.98
2018-01-13T10:59:11.700Z,98974.37
2018-01-13T11:01:40.009Z,98969.77
2018-01-13T11:04:08.331Z,98971.37
2018-01-13T11:06:36.707Z,98966.28
2018-01-13T11:09:05.047Z,98972.73
2018-01-13T11:11:33.369Z,98972.00
2018-01-13T11:14:01.716Z,98976.45
2018-01-13T11:16:30.052Z,98974.41
2018-01-13T11:18:58.384Z,98968.02
2018-01-13T11:21:26.716Z,98964.42
2018-01-13T11:23:55.060Z,98967.91
2018-01-13T11:26:23.390Z,98962.55
2018-01-13T11:28:51.706Z,98966.59
2018-01-13T11:31:20.044Z,98961.80
2018-01-13T11:33:48.386Z,98962.94
2018-01-13T11:36:16.715Z,98957.11
2018-01-13T11:38:45.057Z,98960.31
2018-01-13T11:41:14.160Z,98957.59
2018-01-13T11:43:42.503Z,98956.49
2018-01-13T11:46:10.844Z,98953.59
2018-01-13T11:48:39.624Z,98951.45
2018-01-13T11:51:07.960Z,98956.22
2018-01-13T11:53:36.270Z,98950.30
2018-01-13T11:56:04.609Z,98950.30
2018-01-13T11:58:32.952Z,98953.22
2018-01-13T12:01:01.277Z,98951.09
2018-01-13T12:03:29.607Z,98953.19
2018-01-13T12:05:59.181Z,98947.31
2018-01-13T12:08:27.499Z,98944.69
2018-01-13T12:10:55.822Z,98939.62
2018-01-13T12:13:24.140Z,98941.41
2018-01-13T12:15:52.485Z,98932.95
2018-01-13T12:18:20.836Z,98933.37
2018-01-13T12:20:49.173Z,98927.80
2018-01-13T12:23:18.270Z,98919.73
2018-01-13T12:25:46.602Z,98922.44
2018-01-13T12:28:14.921Z,98910.95
2018-01-13T12:30:44.024Z,98917.48
2018-01-13T12:33:12.346Z,98911.18
2018-01-13T12:35:40.677Z,98911.08
2018-01-13T12:38:09.758Z,98911.00
2018-01-13T12:40:38.084Z,98893.50
2018-01-13T12:43:06.403Z,98905.35
2018-01-13T12:45:34.735Z,98906.22
2018-01-13T12:48:03.935Z,98901.58
2018-01-13T12:50:32.242Z,98898.38
2018-01-13T12:53:00.579Z,98894.30
2018-01-13T12:55:28.919Z,98901.30
2018-01-13T12:57:57.251Z,98888.13
2018-01-13T13:00:25.618Z,98897.89
2018-01-13T13:02:53.933Z,98894.55
2018-01-13T13:05:22.270Z,98894.19
2018-01-13T13:07:50.619Z,98895.31
2018-01-13T13:10:19.963Z,98897.70
2018-01-13T13:12:48.400Z,98886.65
2018-01-13T13:15:16.718Z,98889.91
2018-01-13T13:17:45.038Z,98888.33
2018-01-13T13:20:13.365Z,98890.19
2018-01-13T13:22:41.740Z,98887.50
2018-01-13T13:25:10.811Z,98884.80
2018-01-13T13:27:39.152Z,98884.70
2018-01-13T13:30:07.479Z,98881.42
2018-01-13T13:32:35.856Z,98887.58
2018-01-13T13:35:04.178Z,98881.94
2018-01-13T13:37:32.506Z,98873.00
2018-01-13T13:40:00.839Z,98871.55
2018-01-13T13:42:29.148Z,98870.45
2018-01-13T13:44:57.469Z,98870.74
2018-01-13T13:47:25.797Z,98874.11
2018-01-13T13:49:54.892Z,98867.03
2018-01-13T13:52:23.205Z,98866.41
2018-01-13T13:54:51.522Z,98863.66
2018-01-13T13:57:19.855Z,98858.00
2018-01-13T13:59:50.465Z,98853.84
2018-01-13T14:02:16.522Z,98855.38
2018-01-13T14:04:44.846Z,98848.62
2018-01-13T14:07:13.177Z,98848.86
2018-01-13T14:09:41.522Z,98853.78
2018-01-13T14:12:10.621Z,98855.27
2018-01-13T14:14:38.949Z,98851.33
2018-01-13T14:17:07.300Z,98853.62
2018-01-13T14:19:35.626Z,98846.83
2018-01-13T14:22:03.967Z,98847.75
2018-01-13T14:24:32.584Z,98847.20
2018-01-13T14:27:00.902Z,98842.83
2018-01-13T14:29:29.240Z,98839.56
2018-01-13T14:31:57.570Z,98833.33
2018-01-13T14:34:25.915Z,98829.95
2018-01-13T14:36:55.011Z,98834.17
2018-01-13T14:39:23.342Z,98828.23
2018-01-13T14:41:51.680Z,98834.02
2018-01-13T14:44:20.025Z,98831.48
2018-01-13T14:46:48.334Z,98826.33
2018-01-13T14:49:16.650Z,98824.56
2018-01-13T14:51:44.970Z,98823.44
2018-01-13T14:54:14.291Z,98822.60
2018-01-13T14:56:42.614Z,98829.17
2018-01-13T14:59:10.952Z,98821.53
2018-01-13T15:01:39.284Z,98822.88
2018-01-13T15:04:07.597Z,98822.25
2018-01-13T15:06:36.917Z,98822.56
2018-01-13T15:09:05.258Z,98820.69
2018-01-13T15:11:33.600Z,98819.85
2018-01-13T15:14:01.923Z,98815.74
2018-01-13T15:16:30.250Z,98815.27
2018-01-13T15:18:58.574Z,98815.40
2018-01-13T15:21:27.683Z,98813.23
2018-01-13T15:23:56.007Z,98814.55
2018-01-13T15:26:24.362Z,98813.71
2018-01-13T15:28:52.706Z,98800.19
2018-01-13T15:31:21.807Z,98814.79
2018-01-13T15:33:50.130Z,98812.67
2018-01-13T15:36:18.484Z,98810.62
2018-01-13T15:38:46.914Z,98803.44
2018-01-13T15:41:16.108Z,98807.67
2018-01-13T15:43:44.444Z,98803.50
2018-01-13T15:46:13.108Z,98809.48
2018-01-13T15:48:41.456Z,98805.69
2018-01-13T15:51:09.821Z,98801.61
2018-01-13T15:53:38.155Z,98802.88
2018-01-13T15:56:06.483Z,98799.52
2018-01-13T15:58:34.828Z,98801.54
2018-01-13T16:01:03.155Z,98804.59
2018-01-13T16:03:32.232Z,98804.69
2018-01-13T16:06:00.538Z,98802.64
2018-01-13T16:08:29.625Z,98800.69
2018-01-13T16:10:58.714Z,98806.82
2018-01-13T16:13:27.045Z,98803.66
2018-01-13T16:15:55.378Z,98801.02
2018-01-13T16:18:23.724Z,98801.23
2018-01-13T16:20:52.083Z,98797.31
2018-01-13T16:23:20.432Z,98802.91
2018-01-13T16:25:48.776Z,98801.99
2018-01-13T16:28:17.866Z,98805.28
2018-01-13T16:30:47.046Z,98801.91
2018-01-13T16:33:15.376Z,98799.88
2018-01-13T16:35:43.786Z,98795.69
2018-01-13T16:38:12.160Z,98791.02
2018-01-13T16:40:41.078Z,98796.20
2018-01-13T16:43:09.507Z,98792.59
2018-01-13T16:45:37.994Z,98794.82
2018-01-13T16:48:06.559Z,98801.19
2018-01-13T16:50:34.989Z,98793.77
2018-01-13T16:53:03.402Z,98795.95
2018-01-13T16:55:32.769Z,98805.77
2018-01-13T16:58:01.187Z,98798.55
2018-01-13T17:00:29.522Z,98798.40
2018-01-13T17:02:57.870Z,98802.88
2018-01-13T17:05:26.263Z,98800.41
2018-01-13T17:07:54.613Z,98787.81
2018-01-13T17:10:23.076Z,98802.17
2018-01-13T17:12:51.482Z,98800.47
2018-01-13T17:15:19.970Z,98806.33
2018-01-13T17:17:48.838Z,98806.77
2018-01-13T17:20:17.241Z,98802.67
2018-01-13T17:22:45.632Z,98813.61
2018-01-13T17:25:14.157Z,98806.70
2018-01-13T17:27:42.602Z,98805.89
2018-01-13T17:30:11.009Z,98813.45
2018-01-13T17:32:39.395Z,98805.37
2018-01-13T17:35:07.784Z,98806.23
2018-01-13T17:37:36.229Z,98806.28
2018-01-13T17:40:04.673Z,98810.47
2018-01-13T17:42:33.090Z,98810.03
2018-01-13T17:45:01.762Z,98810.44
2018-01-13T17:47:31.072Z,98803.69
2018-01-13T17:49:59.489Z,98800.98
2018-01-13T17:52:28.122Z,98791.27
2018-01-13T17:54:56.633Z,98794.39
2018-01-13T17:57:25.252Z,98786.34
2018-01-13T17:59:53.650Z,98791.75
2018-01-13T18:02:22.142Z,98790.61
2018-01-13T18:04:50.836Z,98787.84
2018-01-13T18:07:19.276Z,98791.25
2018-01-13T18:09:50.871Z,98785.42
2018-01-13T18:12:19.369Z,98796.74
2018-01-13T18:14:48.120Z,98801.92
2018-01-13T18:17:16.605Z,98806.21
2018-01-13T18:19:45.054Z,98805.63
2018-01-13T18:22:13.530Z,98810.58
2018-01-13T18:24:42.072Z,98807.53
2018-01-13T18:27:10.613Z,98803.91
2018-01-13T18:29:39.539Z,98810.77
2018-01-13T18:32:08.265Z,98804.58
2018-01-13T18:34:37.199Z,98796.27
2018-01-13T18:37:06.403Z,98807.27
2018-01-13T18:39:35.402Z,98808.51
2018-01-13T18:42:04.155Z,98804.23
2018-01-13T18:44:32.991Z,98800.11
2018-01-13T18:47:03.602Z,98795.80
2018-01-13T18:49:33.503Z,98797.88
2018-01-13T18:52:03.316Z,98796.64
2018-01-13T18:54:33.904Z,98798.75
2018-01-13T18:57:03.789Z,98801.70
2018-01-13T18:59:33.616Z,98795.44
2018-01-13T19:02:03.267Z,98796.55
2018-01-13T19:04:33.066Z,98793.53
2018-01-13T19:07:02.651Z,98795.55
2018-01-13T19:09:32.623Z,98792.91
2018-01-13T19:12:02.515Z,98790.04
2018-01-13T19:14:32.322Z,98788.28
2018-01-13T19:17:02.191Z,98787.52
2018-01-13T19:19:31.813Z,98787.95
2018-01-13T19:22:01.469Z,98785.52
2018-01-13T19:24:31.217Z,98788.55
2018-01-13T19:27:00.998Z,98785.81
2018-01-13T19:29:30.808Z,98779.81
2018-01-13T19:32:01.481Z,98788.06
2018-01-13T19:34:31.296Z,98782.25
2018-01-13T19:37:01.164Z,98784.24
2018-01-13T19:39:30.994Z,98778.24
2018-01-13T19:42:00.745Z,98782.42
2018-01-13T19:44:30.617Z,98786.05
2018-01-13T19:47:00.627Z,98778.52
2018-01-13T19:49:30.477Z,98782.74
2018-01-13T19:52:00.391Z,98782.86
2018-01-13T19:54:30.392Z,98779.56
2018-01-13T19:57:00.297Z,98774.56
2018-01-13T19:59:30.281Z,98775.98
2018-01-13T20:02:00.118Z,98770.78
2018-01-13T20:04:29.965Z,98765.28
2018-01-13T20:06:59.924Z,98772.80
2018-01-13T20:09:34.992Z,98767.66
2018-01-13T20:12:04.948Z,98762.56
2018-01-13T20:14:34.805Z,98764.25
2018-01-13T20:17:04.642Z,98769.03
2018-01-13T20:19:34.522Z,98766.91
2018-01-13T20:22:04.337Z,98765.94
2018-01-13T20:24:34.306Z,98766.89
2018-01-13T20:27:04.256Z,98768.02
2018-01-13T20:29:34.175Z,98765.91
2018-01-13T20:32:04.030Z,98765.58
2018-01-13T20:34:33.858Z,98756.83
2018-01-13T20:37:03.723Z,98750.15
2018-01-13T20:39:33.722Z,98748.05
2018-01-13T20:42:03.734Z,98754.50
2018-01-13T20:44:33.598Z,98742.09
2018-01-13T20:47:03.533Z,98742.54
2018-01-13T20:49:33.405Z,98744.95
2018-01-13T20:52:03.310Z,98742.42
2018-01-13T20:54:33.292Z,98744.74
2018-01-13T20:57:03.168Z,98745.45
2018-01-13T20:59:33.218Z,98743.61
2018-01-13T21:02:03.063Z,98748.45
2018-01-13T21:04:33.848Z,98744.51
2018-01-13T21:07:03.718Z,98746.47
2018-01-13T21:09:34.408Z,98742.63
2018-01-13T21:12:04.411Z,98737.76
2018-01-13T21:14:34.385Z,98730.08
2018-01-13T21:17:04.213Z,98726.33
2018-01-13T21:19:34.115Z,98737.69
2018-01-13T21:22:04.024Z,98736.98
2018-01-13T21:24:34.015Z,98739.38
2018-01-13T21:27:04.300Z,98737.17
2018-01-13T21:29:34.157Z,98738.84
2018-01-13T21:32:04.042Z,98737.83
2018-01-13T21:34:33.884Z,98738.19
2018-01-13T21:37:04.567Z,98736.77
2018-01-13T21:39:34.416Z,98740.67
2018-01-13T21:42:04.234Z,98743.07
2018-01-13T21:44:34.138Z,98741.17
2018-01-13T21:47:04.001Z,98747.38
2018-01-13T21:49:33.850Z,98736.98
2018-01-13T21:52:03.757Z,98732.12
2018-01-13T21:54:33.627Z,98737.00
2018-01-13T21:57:03.519Z,98730.39
2018-01-13T21:59:33.433Z,98731.61
2018-01-13T22:02:03.884Z,98726.94
2018-01-13T22:04:33.799Z,98726.25
2018-01-13T22:07:03.699Z,98732.26
2018-01-13T22:09:34.423Z,98734.22
2018-01-13T22:12:04.268Z,98728.80
2018-01-13T22:14:34.273Z,98732.93
2018-01-13T22:17:04.207Z,98739.19
2018-01-13T22:19:34.147Z,98734.08
2018-01-13T22:22:03.974Z,98732.99
2018-01-13T22:24:33.875Z,98732.20
2018-01-13T22:27:03.736Z,98725.02
2018-01-13T22:29:33.641Z,98730.13
2018-01-13T22:32:03.531Z,98733.05
2018-01-13T22:34:33.465Z,98729.55
2018-01-13T22:37:03.354Z,98735.46
2018-01-13T22:39:33.360Z,98740.56
2018-01-13T22:42:03.319Z,98733.73
2018-01-13T22:44:33.229Z,98739.05
2018-01-13T22:47:03.137Z,98732.89
2018-01-13T22:49:32.826Z,98727.87
2018-01-13T22:52:02.681Z,98731.93
2018-01-13T22:54:32.445Z,98718.55
2018-01-13T22:57:02.216Z,98721.12
2018-01-13T22:59:32.005Z,98723.00
2018-01-13T23:02:01.673Z,98717.95
2018-01-13T23:04:31.371Z,98723.08
2018-01-13T23:07:00.927Z,98719.56
2018-01-13T23:09:30.111Z,98715.46
2018-01-13T23:11:58.732Z,98715.28
2018-01-13T23:14:27.584Z,98710.84
2018-01-13T23:16:55.968Z,98715.02
2018-01-13T23:19:24.364Z,98702.72
2018-01-13T23:21:52.799Z,98707.33
2018-01-13T23:24:21.156Z,98707.41
2018-01-13T23:26:49.505Z,98711.30
2018-01-13T23:29:17.942Z,98706.64
2018-01-13T23:31:46.309Z,98702.22
2018-01-13T23:34:14.651Z,98701.51
2018-01-13T23:36:44.056Z,98706.71
2018-01-13T23:39:12.429Z,98702.78
2018-01-13T23:41:40.801Z,98704.17
2018-01-13T23:44:09.149Z,98704.35
2018-01-13T23:46:38.253Z,98698.95
2018-01-13T23:49:07.349Z,98700.20
2018-01-13T23:51:36.440Z,98692.50
2018-01-13T23:54:04.778Z,98697.94
2018-01-13T23:56:33.132Z,98692.96
2018-01-13T23:59:01.460Z,98687.12
